sensor_id;sensor_type;location;lat;lon;timestamp;temperature;humidity
41060;DHT22;26811;53.160;8.202;2022-08-25T00:02:45;21.40;95.10
41060;DHT22;26811;53.160;8.202;2022-08-25T00:07:46;21.40;95.10
41060;DHT22;26811;53.160;8.202;2022-08-25T00:12:46;21.30;95.30
41060;DHT22;26811;53.160;8.202;2022-08-25T00:17:47;21.30;95.60
41060;DHT22;26811;53.160;8.202;2022-08-25T00:22:48;21.30;95.80
41060;DHT22;26811;53.160;8.202;2022-08-25T00:27:50;21.20;95.90
41060;DHT22;26811;53.160;8.202;2022-08-25T00:32:50;21.20;95.70
41060;DHT22;26811;53.160;8.202;2022-08-25T00:37:51;21.10;95.80
41060;DHT22;26811;53.160;8.202;2022-08-25T00:42:51;21.00;96.00
41060;DHT22;26811;53.160;8.202;2022-08-25T00:47:53;20.90;96.20
41060;DHT22;26811;53.160;8.202;2022-08-25T00:52:57;20.80;96.50
41060;DHT22;26811;53.160;8.202;2022-08-25T01:03:06;20.70;96.50
41060;DHT22;26811;53.160;8.202;2022-08-25T01:08:07;20.70;96.70
41060;DHT22;26811;53.160;8.202;2022-08-25T01:13:22;20.70;96.80
41060;DHT22;26811;53.160;8.202;2022-08-25T01:18:25;20.60;96.90
41060;DHT22;26811;53.160;8.202;2022-08-25T01:23:26;20.60;97.00
41060;DHT22;26811;53.160;8.202;2022-08-25T01:28:27;20.60;97.50
41060;DHT22;26811;53.160;8.202;2022-08-25T01:33:27;20.50;97.30
41060;DHT22;26811;53.160;8.202;2022-08-25T01:38:28;20.40;97.40
41060;DHT22;26811;53.160;8.202;2022-08-25T01:43:36;20.40;97.60
41060;DHT22;26811;53.160;8.202;2022-08-25T01:48:37;20.30;97.70
41060;DHT22;26811;53.160;8.202;2022-08-25T01:53:38;20.30;98.10
41060;DHT22;26811;53.160;8.202;2022-08-25T01:58:42;20.20;98.20
41060;DHT22;26811;53.160;8.202;2022-08-25T02:03:45;20.10;98.40
41060;DHT22;26811;53.160;8.202;2022-08-25T02:08:53;20.10;98.80
41060;DHT22;26811;53.160;8.202;2022-08-25T02:13:54;19.90;99.20
41060;DHT22;26811;53.160;8.202;2022-08-25T02:18:55;19.80;99.70
41060;DHT22;26811;53.160;8.202;2022-08-25T02:23:56;19.70;99.70
41060;DHT22;26811;53.160;8.202;2022-08-25T02:28:57;19.60;99.90
41060;DHT22;26811;53.160;8.202;2022-08-25T02:33:57;19.60;99.90
41060;DHT22;26811;53.160;8.202;2022-08-25T02:38:58;19.50;99.90
41060;DHT22;26811;53.160;8.202;2022-08-25T02:44:00;19.50;99.90
41060;DHT22;26811;53.160;8.202;2022-08-25T02:49:02;19.40;99.90
41060;DHT22;26811;53.160;8.202;2022-08-25T02:54:04;19.30;99.90
41060;DHT22;26811;53.160;8.202;2022-08-25T02:59:05;19.30;99.90
41060;DHT22;26811;53.160;8.202;2022-08-25T03:04:05;19.20;99.90
41060;DHT22;26811;53.160;8.202;2022-08-25T03:09:06;19.10;99.90
41060;DHT22;26811;53.160;8.202;2022-08-25T03:14:07;19.00;99.90
41060;DHT22;26811;53.160;8.202;2022-08-25T03:19:10;19.00;99.90
41060;DHT22;26811;53.160;8.202;2022-08-25T03:24:11;18.90;99.90
41060;DHT22;26811;53.160;8.202;2022-08-25T03:29:11;18.80;99.90
41060;DHT22;26811;53.160;8.202;2022-08-25T03:34:14;18.80;99.90
41060;DHT22;26811;53.160;8.202;2022-08-25T03:39:18;18.70;99.90
41060;DHT22;26811;53.160;8.202;2022-08-25T03:44:19;18.60;99.90
41060;DHT22;26811;53.160;8.202;2022-08-25T03:49:22;18.60;99.90
41060;DHT22;26811;53.160;8.202;2022-08-25T03:54:24;18.50;99.90
41060;DHT22;26811;53.160;8.202;2022-08-25T03:59:25;18.50;99.90
41060;DHT22;26811;53.160;8.202;2022-08-25T04:04:26;18.50;99.90
41060;DHT22;26811;53.160;8.202;2022-08-25T04:09:27;18.40;99.90
41060;DHT22;26811;53.160;8.202;2022-08-25T04:14:27;18.40;99.90
41060;DHT22;26811;53.160;8.202;2022-08-25T04:19:28;18.30;99.90
41060;DHT22;26811;53.160;8.202;2022-08-25T04:24:28;18.30;99.90
41060;DHT22;26811;53.160;8.202;2022-08-25T04:29:29;18.30;99.90
41060;DHT22;26811;53.160;8.202;2022-08-25T04:34:29;18.30;99.90
41060;DHT22;26811;53.160;8.202;2022-08-25T04:39:31;18.30;99.90
41060;DHT22;26811;53.160;8.202;2022-08-25T04:44:32;18.30;99.90
41060;DHT22;26811;53.160;8.202;2022-08-25T04:49:32;18.30;99.90
41060;DHT22;26811;53.160;8.202;2022-08-25T04:54:33;18.20;99.90
41060;DHT22;26811;53.160;8.202;2022-08-25T04:59:33;18.30;99.90
41060;DHT22;26811;53.160;8.202;2022-08-25T05:04:34;18.30;99.90
41060;DHT22;26811;53.160;8.202;2022-08-25T05:09:35;18.30;99.90
41060;DHT22;26811;53.160;8.202;2022-08-25T05:14:37;18.30;99.90
41060;DHT22;26811;53.160;8.202;2022-08-25T05:19:37;18.40;99.90
41060;DHT22;26811;53.160;8.202;2022-08-25T05:24:38;18.50;99.90
41060;DHT22;26811;53.160;8.202;2022-08-25T05:29:38;18.50;99.90
41060;DHT22;26811;53.160;8.202;2022-08-25T05:34:39;18.50;99.90
41060;DHT22;26811;53.160;8.202;2022-08-25T05:39:39;18.70;99.90
41060;DHT22;26811;53.160;8.202;2022-08-25T05:44:40;18.70;99.90
41060;DHT22;26811;53.160;8.202;2022-08-25T05:49:41;18.70;99.90
41060;DHT22;26811;53.160;8.202;2022-08-25T05:54:42;18.80;99.90
41060;DHT22;26811;53.160;8.202;2022-08-25T05:59:42;18.90;99.90
41060;DHT22;26811;53.160;8.202;2022-08-25T06:04:43;19.00;99.90
41060;DHT22;26811;53.160;8.202;2022-08-25T06:09:43;19.20;99.90
41060;DHT22;26811;53.160;8.202;2022-08-25T06:14:45;19.30;99.90
41060;DHT22;26811;53.160;8.202;2022-08-25T06:19:46;19.40;99.90
41060;DHT22;26811;53.160;8.202;2022-08-25T06:24:47;19.60;99.90
41060;DHT22;26811;53.160;8.202;2022-08-25T06:29:47;19.90;99.90
41060;DHT22;26811;53.160;8.202;2022-08-25T06:34:48;20.10;99.90
41060;DHT22;26811;53.160;8.202;2022-08-25T06:39:49;20.50;99.90
41060;DHT22;26811;53.160;8.202;2022-08-25T06:44:49;20.90;99.90
41060;DHT22;26811;53.160;8.202;2022-08-25T06:49:50;21.40;99.90
41060;DHT22;26811;53.160;8.202;2022-08-25T06:54:50;22.30;99.90
41060;DHT22;26811;53.160;8.202;2022-08-25T06:59:52;22.80;99.90
41060;DHT22;26811;53.160;8.202;2022-08-25T07:04:52;23.90;99.90
41060;DHT22;26811;53.160;8.202;2022-08-25T07:09:53;25.40;99.90
41060;DHT22;26811;53.160;8.202;2022-08-25T07:14:54;26.40;99.90
41060;DHT22;26811;53.160;8.202;2022-08-25T07:19:54;26.30;99.90
41060;DHT22;26811;53.160;8.202;2022-08-25T07:24:55;26.30;99.90
41060;DHT22;26811;53.160;8.202;2022-08-25T07:29:56;26.80;99.90
41060;DHT22;26811;53.160;8.202;2022-08-25T07:34:56;27.70;99.10
41060;DHT22;26811;53.160;8.202;2022-08-25T07:40:25;28.30;98.30
41060;DHT22;26811;53.160;8.202;2022-08-25T07:45:29;28.80;98.10
41060;DHT22;26811;53.160;8.202;2022-08-25T07:50:31;29.20;97.40
41060;DHT22;26811;53.160;8.202;2022-08-25T07:55:33;29.20;96.40
41060;DHT22;26811;53.160;8.202;2022-08-25T08:00:37;30.00;96.30
41060;DHT22;26811;53.160;8.202;2022-08-25T08:05:41;30.50;94.60
41060;DHT22;26811;53.160;8.202;2022-08-25T08:10:42;30.40;95.00
41060;DHT22;26811;53.160;8.202;2022-08-25T08:15:43;29.70;95.90
41060;DHT22;26811;53.160;8.202;2022-08-25T08:20:46;29.30;96.40
41060;DHT22;26811;53.160;8.202;2022-08-25T08:25:46;29.10;96.00
41060;DHT22;26811;53.160;8.202;2022-08-25T08:30:47;29.20;97.00
41060;DHT22;26811;53.160;8.202;2022-08-25T08:35:58;29.80;96.20
41060;DHT22;26811;53.160;8.202;2022-08-25T08:52:14;30.30;95.90
41060;DHT22;26811;53.160;8.202;2022-08-25T08:57:24;30.10;94.20
41060;DHT22;26811;53.160;8.202;2022-08-25T09:02:34;29.80;94.30
41060;DHT22;26811;53.160;8.202;2022-08-25T09:07:42;29.80;95.10
41060;DHT22;26811;53.160;8.202;2022-08-25T09:12:50;30.20;95.20
41060;DHT22;26811;53.160;8.202;2022-08-25T09:29:03;29.30;95.10
41060;DHT22;26811;53.160;8.202;2022-08-25T09:34:18;29.60;95.00
41060;DHT22;26811;53.160;8.202;2022-08-25T09:39:19;30.10;94.80
41060;DHT22;26811;53.160;8.202;2022-08-25T09:44:40;30.00;94.50
41060;DHT22;26811;53.160;8.202;2022-08-25T09:49:55;30.30;95.10
41060;DHT22;26811;53.160;8.202;2022-08-25T09:54:58;30.30;94.40
41060;DHT22;26811;53.160;8.202;2022-08-25T10:05:25;30.00;94.00
41060;DHT22;26811;53.160;8.202;2022-08-25T10:15:32;30.10;94.00
41060;DHT22;26811;53.160;8.202;2022-08-25T10:20:32;30.20;94.30
41060;DHT22;26811;53.160;8.202;2022-08-25T10:25:33;29.80;93.30
41060;DHT22;26811;53.160;8.202;2022-08-25T10:30:50;29.80;94.20
41060;DHT22;26811;53.160;8.202;2022-08-25T10:41:41;29.50;94.40
41060;DHT22;26811;53.160;8.202;2022-08-25T10:46:51;29.50;93.00
41060;DHT22;26811;53.160;8.202;2022-08-25T10:52:18;29.50;92.90
41060;DHT22;26811;53.160;8.202;2022-08-25T10:58:01;30.10;92.30
41060;DHT22;26811;53.160;8.202;2022-08-25T11:03:21;30.30;91.50
41060;DHT22;26811;53.160;8.202;2022-08-25T11:08:37;30.20;91.20
41060;DHT22;26811;53.160;8.202;2022-08-25T11:14:06;30.60;92.10
41060;DHT22;26811;53.160;8.202;2022-08-25T11:19:17;30.50;91.50
41060;DHT22;26811;53.160;8.202;2022-08-25T11:29:48;30.40;91.10
41060;DHT22;26811;53.160;8.202;2022-08-25T11:34:52;30.40;90.70
41060;DHT22;26811;53.160;8.202;2022-08-25T11:45:45;30.70;90.50
41060;DHT22;26811;53.160;8.202;2022-08-25T11:51:26;30.70;90.50
41060;DHT22;26811;53.160;8.202;2022-08-25T11:56:32;30.20;90.20
41060;DHT22;26811;53.160;8.202;2022-08-25T12:17:36;29.90;91.00
41060;DHT22;26811;53.160;8.202;2022-08-25T12:22:40;30.30;90.40
41060;DHT22;26811;53.160;8.202;2022-08-25T12:28:25;30.40;89.50
41060;DHT22;26811;53.160;8.202;2022-08-25T12:33:46;30.00;90.10
41060;DHT22;26811;53.160;8.202;2022-08-25T12:38:52;29.80;90.20
41060;DHT22;26811;53.160;8.202;2022-08-25T12:44:16;30.30;89.70
41060;DHT22;26811;53.160;8.202;2022-08-25T12:49:33;30.60;89.10
41060;DHT22;26811;53.160;8.202;2022-08-25T12:54:50;30.90;88.90
41060;DHT22;26811;53.160;8.202;2022-08-25T12:59:53;30.90;87.40
41060;DHT22;26811;53.160;8.202;2022-08-25T13:10:28;30.40;88.00
41060;DHT22;26811;53.160;8.202;2022-08-25T13:15:41;30.60;88.50
41060;DHT22;26811;53.160;8.202;2022-08-25T13:20:49;30.60;88.90
41060;DHT22;26811;53.160;8.202;2022-08-25T13:25:51;30.00;89.20
41060;DHT22;26811;53.160;8.202;2022-08-25T13:30:59;29.70;88.50
41060;DHT22;26811;53.160;8.202;2022-08-25T13:36:02;29.70;89.80
41060;DHT22;26811;53.160;8.202;2022-08-25T13:41:23;29.90;88.90
41060;DHT22;26811;53.160;8.202;2022-08-25T13:46:24;30.30;88.70
41060;DHT22;26811;53.160;8.202;2022-08-25T13:51:26;30.70;89.30
41060;DHT22;26811;53.160;8.202;2022-08-25T13:56:33;30.80;87.90
41060;DHT22;26811;53.160;8.202;2022-08-25T14:01:43;30.60;87.60
41060;DHT22;26811;53.160;8.202;2022-08-25T14:06:43;30.40;88.10
41060;DHT22;26811;53.160;8.202;2022-08-25T14:11:47;30.50;88.40
41060;DHT22;26811;53.160;8.202;2022-08-25T14:17:14;30.60;88.00
41060;DHT22;26811;53.160;8.202;2022-08-25T14:22:17;30.30;89.20
41060;DHT22;26811;53.160;8.202;2022-08-25T14:27:17;30.20;90.00
41060;DHT22;26811;53.160;8.202;2022-08-25T14:32:18;30.30;89.50
41060;DHT22;26811;53.160;8.202;2022-08-25T14:37:19;30.60;89.80
41060;DHT22;26811;53.160;8.202;2022-08-25T14:42:20;30.60;88.10
41060;DHT22;26811;53.160;8.202;2022-08-25T14:47:22;30.40;89.10
41060;DHT22;26811;53.160;8.202;2022-08-25T14:52:27;30.20;88.40
41060;DHT22;26811;53.160;8.202;2022-08-25T14:57:29;30.60;89.40
41060;DHT22;26811;53.160;8.202;2022-08-25T15:02:29;30.80;89.30
41060;DHT22;26811;53.160;8.202;2022-08-25T15:07:34;30.90;88.60
41060;DHT22;26811;53.160;8.202;2022-08-25T15:12:54;30.60;88.70
41060;DHT22;26811;53.160;8.202;2022-08-25T15:17:54;30.10;89.80
41060;DHT22;26811;53.160;8.202;2022-08-25T15:22:55;30.00;90.00
41060;DHT22;26811;53.160;8.202;2022-08-25T15:27:56;30.10;89.40
41060;DHT22;26811;53.160;8.202;2022-08-25T15:32:56;30.20;89.90
41060;DHT22;26811;53.160;8.202;2022-08-25T15:37:57;30.00;89.30
41060;DHT22;26811;53.160;8.202;2022-08-25T15:42:57;29.80;90.20
41060;DHT22;26811;53.160;8.202;2022-08-25T15:48:01;29.70;90.10
41060;DHT22;26811;53.160;8.202;2022-08-25T15:53:01;29.60;90.10
41060;DHT22;26811;53.160;8.202;2022-08-25T15:58:02;29.50;90.60
41060;DHT22;26811;53.160;8.202;2022-08-25T16:03:03;29.50;90.90
41060;DHT22;26811;53.160;8.202;2022-08-25T16:08:04;29.50;91.40
41060;DHT22;26811;53.160;8.202;2022-08-25T16:13:05;29.20;91.20
41060;DHT22;26811;53.160;8.202;2022-08-25T16:18:06;29.10;91.50
41060;DHT22;26811;53.160;8.202;2022-08-25T16:23:06;28.90;92.00
41060;DHT22;26811;53.160;8.202;2022-08-25T16:28:08;28.90;91.80
41060;DHT22;26811;53.160;8.202;2022-08-25T16:33:09;29.00;91.60
41060;DHT22;26811;53.160;8.202;2022-08-25T16:38:10;29.10;91.90
41060;DHT22;26811;53.160;8.202;2022-08-25T16:43:11;29.10;91.70
41060;DHT22;26811;53.160;8.202;2022-08-25T16:48:12;29.00;91.80
41060;DHT22;26811;53.160;8.202;2022-08-25T16:53:12;28.70;92.30
41060;DHT22;26811;53.160;8.202;2022-08-25T16:58:32;28.50;92.80
41060;DHT22;26811;53.160;8.202;2022-08-25T17:03:33;28.50;92.90
41060;DHT22;26811;53.160;8.202;2022-08-25T17:08:35;28.40;93.00
41060;DHT22;26811;53.160;8.202;2022-08-25T17:13:38;28.30;93.10
41060;DHT22;26811;53.160;8.202;2022-08-25T17:18:39;28.20;93.30
41060;DHT22;26811;53.160;8.202;2022-08-25T17:23:43;28.10;93.60
41060;DHT22;26811;53.160;8.202;2022-08-25T17:28:43;28.00;93.90
41060;DHT22;26811;53.160;8.202;2022-08-25T17:33:44;27.90;94.30
41060;DHT22;26811;53.160;8.202;2022-08-25T17:38:45;27.80;95.10
41060;DHT22;26811;53.160;8.202;2022-08-25T17:43:46;27.70;95.30
41060;DHT22;26811;53.160;8.202;2022-08-25T17:48:46;27.50;95.50
41060;DHT22;26811;53.160;8.202;2022-08-25T17:53:47;27.40;95.80
41060;DHT22;26811;53.160;8.202;2022-08-25T17:58:49;27.20;96.10
41060;DHT22;26811;53.160;8.202;2022-08-25T18:03:50;27.10;96.40
41060;DHT22;26811;53.160;8.202;2022-08-25T18:08:51;27.00;96.60
41060;DHT22;26811;53.160;8.202;2022-08-25T18:13:53;26.80;96.70
41060;DHT22;26811;53.160;8.202;2022-08-25T18:18:54;26.70;97.00
41060;DHT22;26811;53.160;8.202;2022-08-25T18:23:55;26.50;97.20
41060;DHT22;26811;53.160;8.202;2022-08-25T18:28:57;26.40;97.50
41060;DHT22;26811;53.160;8.202;2022-08-25T18:33:57;26.30;97.70
41060;DHT22;26811;53.160;8.202;2022-08-25T18:38:58;26.10;98.00
41060;DHT22;26811;53.160;8.202;2022-08-25T18:44:17;26.00;98.10
41060;DHT22;26811;53.160;8.202;2022-08-25T18:49:18;25.90;98.40
41060;DHT22;26811;53.160;8.202;2022-08-25T18:54:19;25.80;98.60
41060;DHT22;26811;53.160;8.202;2022-08-25T18:59:20;25.70;98.80
41060;DHT22;26811;53.160;8.202;2022-08-25T19:04:21;25.60;99.00
41060;DHT22;26811;53.160;8.202;2022-08-25T19:09:22;25.50;99.20
41060;DHT22;26811;53.160;8.202;2022-08-25T19:14:22;25.40;99.40
41060;DHT22;26811;53.160;8.202;2022-08-25T19:19:23;25.30;99.60
41060;DHT22;26811;53.160;8.202;2022-08-25T19:24:24;25.20;99.90
41060;DHT22;26811;53.160;8.202;2022-08-25T19:29:24;25.10;99.90
41060;DHT22;26811;53.160;8.202;2022-08-25T19:34:30;25.10;99.90
41060;DHT22;26811;53.160;8.202;2022-08-25T19:39:33;24.90;99.90
41060;DHT22;26811;53.160;8.202;2022-08-25T19:44:34;24.90;99.90
41060;DHT22;26811;53.160;8.202;2022-08-25T19:49:35;24.90;99.90
41060;DHT22;26811;53.160;8.202;2022-08-25T19:54:39;24.80;99.90
41060;DHT22;26811;53.160;8.202;2022-08-25T19:59:41;24.70;99.90
41060;DHT22;26811;53.160;8.202;2022-08-25T20:04:46;24.60;99.90
41060;DHT22;26811;53.160;8.202;2022-08-25T20:09:48;24.50;99.90
41060;DHT22;26811;53.160;8.202;2022-08-25T20:14:50;24.40;99.90
41060;DHT22;26811;53.160;8.202;2022-08-25T20:19:53;24.30;99.90
41060;DHT22;26811;53.160;8.202;2022-08-25T20:24:56;24.20;99.90
41060;DHT22;26811;53.160;8.202;2022-08-25T20:29:57;24.10;99.90
41060;DHT22;26811;53.160;8.202;2022-08-25T20:35:00;24.00;99.90
41060;DHT22;26811;53.160;8.202;2022-08-25T20:40:01;24.00;99.90
41060;DHT22;26811;53.160;8.202;2022-08-25T20:45:02;23.90;99.90
41060;DHT22;26811;53.160;8.202;2022-08-25T20:50:03;23.80;99.90
41060;DHT22;26811;53.160;8.202;2022-08-25T20:55:05;23.80;99.90
41060;DHT22;26811;53.160;8.202;2022-08-25T21:00:07;23.70;99.90
41060;DHT22;26811;53.160;8.202;2022-08-25T21:05:08;23.70;99.90
41060;DHT22;26811;53.160;8.202;2022-08-25T21:10:09;23.60;99.90
41060;DHT22;26811;53.160;8.202;2022-08-25T21:15:11;23.50;99.90
41060;DHT22;26811;53.160;8.202;2022-08-25T21:20:12;23.40;99.90
41060;DHT22;26811;53.160;8.202;2022-08-25T21:25:13;23.40;99.90
41060;DHT22;26811;53.160;8.202;2022-08-25T21:30:13;23.20;99.90
41060;DHT22;26811;53.160;8.202;2022-08-25T21:35:14;23.10;99.90
41060;DHT22;26811;53.160;8.202;2022-08-25T21:40:15;23.10;99.90
41060;DHT22;26811;53.160;8.202;2022-08-25T21:45:15;23.00;99.90
41060;DHT22;26811;53.160;8.202;2022-08-25T21:50:16;22.90;99.90
41060;DHT22;26811;53.160;8.202;2022-08-25T21:55:17;22.90;99.90
41060;DHT22;26811;53.160;8.202;2022-08-25T22:00:17;22.90;99.90
41060;DHT22;26811;53.160;8.202;2022-08-25T22:05:18;22.80;99.90
41060;DHT22;26811;53.160;8.202;2022-08-25T22:10:19;22.70;99.90
41060;DHT22;26811;53.160;8.202;2022-08-25T22:15:19;22.60;99.90
41060;DHT22;26811;53.160;8.202;2022-08-25T22:20:20;22.60;99.90
41060;DHT22;26811;53.160;8.202;2022-08-25T22:25:20;22.50;99.90
41060;DHT22;26811;53.160;8.202;2022-08-25T22:30:23;22.50;99.90
41060;DHT22;26811;53.160;8.202;2022-08-25T22:35:25;22.40;99.90
41060;DHT22;26811;53.160;8.202;2022-08-25T22:40:26;22.40;99.90
41060;DHT22;26811;53.160;8.202;2022-08-25T22:45:27;22.30;99.90
41060;DHT22;26811;53.160;8.202;2022-08-25T22:50:28;22.30;99.90
41060;DHT22;26811;53.160;8.202;2022-08-25T22:55:28;22.20;99.90
41060;DHT22;26811;53.160;8.202;2022-08-25T23:00:29;22.20;99.90
41060;DHT22;26811;53.160;8.202;2022-08-25T23:05:29;22.10;99.90
41060;DHT22;26811;53.160;8.202;2022-08-25T23:10:30;22.10;99.90
41060;DHT22;26811;53.160;8.202;2022-08-25T23:15:31;22.00;99.90
41060;DHT22;26811;53.160;8.202;2022-08-25T23:20:32;22.00;99.90
41060;DHT22;26811;53.160;8.202;2022-08-25T23:25:51;22.00;99.90
41060;DHT22;26811;53.160;8.202;2022-08-25T23:30:52;22.00;99.90
41060;DHT22;26811;53.160;8.202;2022-08-25T23:35:57;21.90;99.90
41060;DHT22;26811;53.160;8.202;2022-08-25T23:46:02;21.80;99.90
41060;DHT22;26811;53.160;8.202;2022-08-25T23:51:03;21.80;99.90
41060;DHT22;26811;53.160;8.202;2022-08-25T23:56:04;21.80;99.90
